createdAt,value
2019-03-09T00:00:42.647Z,12.50
2019-03-09T00:03:15.638Z,10.80
2019-03-09T00:05:46.891Z,9.47
2019-03-09T00:08:17.842Z,15.13
2019-03-09T00:10:50.418Z,13.50
2019-03-09T00:13:21.442Z,10.73
2019-03-09T00:15:52.233Z,13.77
2019-03-09T00:18:23.241Z,10.77
2019-03-09T00:20:54.203Z,13.67
2019-03-09T00:23:27.451Z,11.23
2019-03-09T00:25:59.802Z,17.13
2019-03-09T00:28:32.939Z,14.07
2019-03-09T00:31:05.317Z,13.77
2019-03-09T00:33:36.558Z,12.47
2019-03-09T00:36:07.692Z,15.97
2019-03-09T00:38:38.689Z,14.37
2019-03-09T00:41:11.277Z,12.83
2019-03-09T00:43:42.141Z,19.43
2019-03-09T00:46:13.365Z,24.50
2019-03-09T00:48:44.221Z,24.13
2019-03-09T00:51:15.173Z,20.97
2019-03-09T00:53:46.587Z,25.40
2019-03-09T00:56:17.835Z,26.07
2019-03-09T00:58:48.550Z,24.67
2019-03-09T01:01:19.566Z,20.30
2019-03-09T01:03:50.666Z,22.37
2019-03-09T01:06:21.443Z,18.37
2019-03-09T01:08:52.429Z,18.10
2019-03-09T01:11:23.241Z,19.03
2019-03-09T01:13:54.122Z,17.37
2019-03-09T01:16:25.090Z,13.90
2019-03-09T01:18:56.424Z,15.37
2019-03-09T01:21:27.397Z,17.63
2019-03-09T01:23:58.677Z,17.93
2019-03-09T01:26:29.646Z,19.90
2019-03-09T01:29:00.521Z,16.70
2019-03-09T01:31:31.242Z,20.40
2019-03-09T01:34:02.443Z,15.60
2019-03-09T01:36:33.099Z,13.27
2019-03-09T01:39:04.428Z,11.90
2019-03-09T01:41:36.687Z,19.87
2019-03-09T01:44:07.948Z,19.33
2019-03-09T01:46:38.812Z,14.60
2019-03-09T01:49:09.641Z,13.83
2019-03-09T01:51:40.193Z,17.80
2019-03-09T01:54:10.868Z,23.43
2019-03-09T01:56:41.937Z,22.37
2019-03-09T01:59:12.626Z,16.50
2019-03-09T02:01:43.337Z,19.13
2019-03-09T02:04:14.227Z,20.77
2019-03-09T02:06:44.940Z,21.27
2019-03-09T02:09:16.048Z,16.70
2019-03-09T02:11:47.243Z,16.40
2019-03-09T02:14:18.123Z,16.97
2019-03-09T02:16:48.809Z,20.87
2019-03-09T02:19:19.662Z,21.00
2019-03-09T02:21:51.674Z,18.87
2019-03-09T02:24:22.662Z,22.30
2019-03-09T02:26:53.794Z,19.77
2019-03-09T02:29:24.747Z,21.83
2019-03-09T02:31:55.498Z,18.83
2019-03-09T02:34:27.281Z,14.47
2019-03-09T02:36:58.176Z,21.37
2019-03-09T02:39:30.474Z,16.57
2019-03-09T02:42:01.884Z,17.63
2019-03-09T02:44:33.026Z,21.87
2019-03-09T02:47:03.995Z,15.53
2019-03-09T02:49:34.937Z,20.60
2019-03-09T02:52:05.844Z,16.10
2019-03-09T02:54:37.614Z,14.97
2019-03-09T02:57:08.451Z,13.20
2019-03-09T02:59:39.140Z,13.37
2019-03-09T03:02:12.202Z,16.00
2019-03-09T03:04:42.969Z,15.00
2019-03-09T03:07:15.516Z,14.10
2019-03-09T03:09:45.977Z,14.83
2019-03-09T03:12:16.761Z,16.70
2019-03-09T03:14:47.902Z,16.97
2019-03-09T03:17:18.818Z,20.73
2019-03-09T03:19:50.097Z,19.60
2019-03-09T03:22:20.740Z,22.10
2019-03-09T03:24:51.818Z,19.10
2019-03-09T03:27:22.937Z,19.63
2019-03-09T03:29:54.122Z,17.47
2019-03-09T03:32:26.839Z,18.97
2019-03-09T03:34:57.553Z,22.63
2019-03-09T03:37:28.515Z,20.63
2019-03-09T03:39:59.644Z,17.17
2019-03-09T03:42:30.852Z,16.03
2019-03-09T03:45:02.025Z,25.63
2019-03-09T03:47:32.740Z,56.97
2019-03-09T03:50:05.452Z,84.83
2019-03-09T03:52:36.363Z,111.97
2019-03-09T03:55:09.639Z,62.63
2019-03-09T03:57:41.755Z,81.87
2019-03-09T04:00:14.617Z,76.27
2019-03-09T04:02:45.401Z,91.77
2019-03-09T04:05:16.390Z,82.17
2019-03-09T04:07:47.398Z,68.93
2019-03-09T04:10:18.168Z,51.03
2019-03-09T04:12:49.337Z,64.93
2019-03-09T04:15:20.377Z,119.30
2019-03-09T04:17:51.705Z,86.10
2019-03-09T04:20:22.705Z,87.53
2019-03-09T04:22:53.971Z,66.93
2019-03-09T04:25:25.082Z,42.57
2019-03-09T04:27:56.137Z,29.63
2019-03-09T04:30:26.814Z,26.50
2019-03-09T04:32:57.885Z,26.60
2019-03-09T04:35:29.029Z,18.37
2019-03-09T04:37:59.687Z,13.90
2019-03-09T04:40:30.473Z,21.27
2019-03-09T04:43:01.575Z,135.87
2019-03-09T04:45:32.034Z,133.63
2019-03-09T04:48:03.122Z,103.90
2019-03-09T04:50:33.813Z,162.10
2019-03-09T04:53:04.806Z,89.57
2019-03-09T04:55:35.728Z,81.13
2019-03-09T04:58:06.961Z,50.87
2019-03-09T05:00:37.778Z,67.40
2019-03-09T05:03:08.391Z,42.30
2019-03-09T05:05:39.446Z,12.77
2019-03-09T05:08:14.068Z,17.80
2019-03-09T05:10:48.476Z,11.03
2019-03-09T05:13:22.903Z,14.93
2019-03-09T05:15:53.892Z,12.97
2019-03-09T05:18:24.926Z,10.70
2019-03-09T05:20:55.687Z,12.50
2019-03-09T05:23:26.536Z,11.10
2019-03-09T05:25:57.248Z,11.33
2019-03-09T05:28:28.096Z,12.20
2019-03-09T05:30:58.911Z,12.93
2019-03-09T05:33:29.908Z,10.10
2019-03-09T05:36:00.757Z,11.83
2019-03-09T05:38:33.223Z,9.90
2019-03-09T05:41:03.943Z,13.27
2019-03-09T05:43:34.986Z,17.57
2019-03-09T05:46:06.169Z,15.83
2019-03-09T05:48:37.309Z,14.67
2019-03-09T05:51:08.782Z,26.87
2019-03-09T05:53:39.874Z,40.17
2019-03-09T05:56:10.805Z,43.57
2019-03-09T05:58:41.748Z,27.87
2019-03-09T06:01:13.705Z,23.70
2019-03-09T06:03:44.718Z,22.73
2019-03-09T06:06:15.637Z,21.07
2019-03-09T06:08:46.833Z,26.90
2019-03-09T06:11:18.169Z,102.60
2019-03-09T06:13:49.164Z,112.97
2019-03-09T06:16:19.767Z,105.80
2019-03-09T06:18:50.705Z,208.53
2019-03-09T06:21:22.394Z,212.53
2019-03-09T06:23:53.808Z,115.00
2019-03-09T06:26:24.780Z,125.73
2019-03-09T06:28:55.686Z,93.53
2019-03-09T06:31:26.823Z,84.33
2019-03-09T06:33:57.814Z,73.53
2019-03-09T06:36:31.639Z,130.03
2019-03-09T06:39:05.481Z,86.70
2019-03-09T06:41:41.664Z,71.60
2019-03-09T06:44:13.262Z,72.03
2019-03-09T06:46:43.958Z,58.30
2019-03-09T06:49:15.019Z,34.93
2019-03-09T06:51:47.060Z,36.13
2019-03-09T06:54:23.352Z,35.57
2019-03-09T06:56:54.284Z,37.73
2019-03-09T06:59:25.327Z,28.80
2019-03-09T07:01:56.450Z,26.10
2019-03-09T07:04:27.495Z,25.40
2019-03-09T07:06:58.374Z,27.30
2019-03-09T07:09:29.656Z,22.93
2019-03-09T07:12:01.109Z,24.70
2019-03-09T07:14:35.702Z,27.10
2019-03-09T07:17:06.772Z,29.23
2019-03-09T07:19:37.469Z,28.03
2019-03-09T07:22:08.304Z,32.40
2019-03-09T07:24:40.278Z,26.30
2019-03-09T07:27:11.059Z,20.57
2019-03-09T07:29:41.981Z,23.03
2019-03-09T07:32:14.003Z,13.60
2019-03-09T07:34:44.680Z,15.47
2019-03-09T07:37:15.453Z,16.90
2019-03-09T07:39:46.710Z,25.50
2019-03-09T07:42:18.094Z,22.77
2019-03-09T07:44:49.591Z,14.70
2019-03-09T07:47:20.633Z,29.40
2019-03-09T07:49:52.028Z,16.03
2019-03-09T07:52:26.576Z,13.07
2019-03-09T07:54:57.799Z,53.80
2019-03-09T07:57:28.689Z,45.00
2019-03-09T07:59:59.627Z,19.30
2019-03-09T08:02:30.879Z,14.53
2019-03-09T08:05:02.064Z,9.87
2019-03-09T08:07:33.537Z,9.67
2019-03-09T08:10:07.295Z,11.27
2019-03-09T08:12:38.144Z,10.90
2019-03-09T08:15:14.226Z,12.57
2019-03-09T08:17:45.600Z,11.87
2019-03-09T08:20:18.824Z,10.23
2019-03-09T08:22:50.026Z,12.60
2019-03-09T08:25:22.759Z,11.80
2019-03-09T08:27:53.461Z,12.00
2019-03-09T08:30:36.693Z,7.77
2019-03-09T08:33:32.261Z,10.53
2019-03-09T08:36:08.713Z,12.43
2019-03-09T08:38:40.611Z,10.97
2019-03-09T08:41:12.389Z,11.60
2019-03-09T08:43:42.979Z,9.87
2019-03-09T08:46:13.642Z,10.27
2019-03-09T08:48:44.995Z,10.30
2019-03-09T08:51:16.438Z,10.63
2019-03-09T08:53:48.002Z,11.20
2019-03-09T08:56:19.286Z,11.57
2019-03-09T08:58:50.516Z,11.50
2019-03-09T09:01:21.946Z,10.77
2019-03-09T09:03:53.359Z,12.80
2019-03-09T09:06:25.304Z,10.23
2019-03-09T09:08:57.253Z,14.93
2019-03-09T09:11:28.186Z,9.93
2019-03-09T09:13:59.325Z,9.47
2019-03-09T09:16:30.154Z,8.43
2019-03-09T09:19:01.224Z,8.90
2019-03-09T09:21:32.226Z,7.63
2019-03-09T09:24:02.755Z,5.67
2019-03-09T09:26:34.340Z,5.77
2019-03-09T09:29:05.664Z,5.07
2019-03-09T09:31:36.864Z,10.10
2019-03-09T09:34:07.792Z,7.03
2019-03-09T09:36:39.026Z,5.37
2019-03-09T09:39:11.885Z,9.97
2019-03-09T09:41:42.663Z,9.60
2019-03-09T09:44:14.052Z,7.00
2019-03-09T09:46:44.603Z,7.57
2019-03-09T09:49:16.547Z,6.27
2019-03-09T09:51:47.329Z,10.10
2019-03-09T09:54:17.921Z,8.77
2019-03-09T09:56:49.201Z,4.47
2019-03-09T09:59:20.091Z,8.30
2019-03-09T10:01:50.894Z,4.93
2019-03-09T10:04:22.211Z,3.73
2019-03-09T10:06:53.408Z,11.80
2019-03-09T10:09:24.444Z,15.27
2019-03-09T10:11:55.914Z,6.40
2019-03-09T10:14:27.898Z,3.93
2019-03-09T10:16:59.032Z,5.97
2019-03-09T10:19:29.774Z,6.30
2019-03-09T10:22:01.194Z,5.33
2019-03-09T10:24:32.933Z,4.20
2019-03-09T10:27:03.555Z,4.90
2019-03-09T10:29:34.478Z,5.53
2019-03-09T10:32:05.519Z,5.33
2019-03-09T10:34:37.680Z,5.10
2019-03-09T10:37:08.741Z,7.30
2019-03-09T10:39:40.024Z,7.63
2019-03-09T10:42:12.184Z,6.80
2019-03-09T10:44:42.977Z,6.53
2019-03-09T10:47:14.351Z,5.10
2019-03-09T10:49:46.178Z,4.37
2019-03-09T10:52:17.903Z,4.73
2019-03-09T10:54:48.981Z,6.27
2019-03-09T10:57:20.081Z,5.07
2019-03-09T10:59:51.322Z,5.63
2019-03-09T11:02:22.681Z,6.73
2019-03-09T11:04:53.761Z,4.57
2019-03-09T11:07:25.080Z,4.73
2019-03-09T11:09:56.504Z,4.53
2019-03-09T11:12:27.500Z,5.53
2019-03-09T11:14:59.861Z,6.10
2019-03-09T11:17:30.329Z,8.97
2019-03-09T11:20:02.361Z,7.30
2019-03-09T11:22:34.606Z,8.20
2019-03-09T11:25:05.742Z,5.77
2019-03-09T11:27:36.784Z,11.80
2019-03-09T11:30:10.940Z,4.33
2019-03-09T11:32:42.398Z,4.03
2019-03-09T11:35:13.529Z,4.97
2019-03-09T11:37:44.424Z,6.60
2019-03-09T11:40:15.508Z,4.00
2019-03-09T11:42:46.322Z,4.20
2019-03-09T11:45:18.635Z,6.07
2019-03-09T11:47:50.037Z,6.33
2019-03-09T11:50:21.744Z,6.27
2019-03-09T11:52:52.626Z,6.10
2019-03-09T11:55:23.526Z,4.90
2019-03-09T11:57:55.257Z,6.30
2019-03-09T12:00:28.106Z,3.97
2019-03-09T12:03:10.388Z,4.97
2019-03-09T12:05:48.954Z,5.47
2019-03-09T12:08:20.518Z,3.90
2019-03-09T12:10:51.636Z,4.27
2019-03-09T12:13:22.751Z,2.02
2019-03-09T12:15:53.636Z,8.38
2019-03-09T12:18:24.905Z,4.50
2019-03-09T12:20:56.050Z,2.60
2019-03-09T12:23:27.031Z,1.60
2019-03-09T12:25:58.437Z,2.65
2019-03-09T12:28:29.253Z,2.75
2019-03-09T12:31:00.162Z,5.37
2019-03-09T12:33:30.797Z,4.55
2019-03-09T12:36:01.196Z,2.52
2019-03-09T12:38:31.613Z,5.90
2019-03-09T12:41:02.268Z,3.45
2019-03-09T12:43:32.708Z,3.58
2019-03-09T12:46:03.192Z,1.52
2019-03-09T12:48:33.964Z,1.37
2019-03-09T12:51:04.469Z,3.08
2019-03-09T12:53:35.124Z,2.87
2019-03-09T12:56:05.708Z,3.62
2019-03-09T12:58:36.173Z,5.12
2019-03-09T13:01:06.597Z,3.27
2019-03-09T13:03:37.093Z,2.20
2019-03-09T13:06:09.629Z,2.67
2019-03-09T13:08:43.276Z,3.83
2019-03-09T13:11:14.198Z,3.85
2019-03-09T13:13:45.028Z,3.50
2019-03-09T13:16:18.604Z,3.92
2019-03-09T13:18:49.363Z,4.28
2019-03-09T13:21:20.268Z,5.90
2019-03-09T13:23:56.796Z,4.37
2019-03-09T13:26:29.116Z,2.25
2019-03-09T13:28:59.654Z,5.80
2019-03-09T13:31:32.027Z,3.70
2019-03-09T13:34:04.412Z,2.85
2019-03-09T13:36:34.955Z,3.92
2019-03-09T13:39:08.451Z,2.58
2019-03-09T13:41:42.540Z,5.25
2019-03-09T13:44:15.852Z,4.37
2019-03-09T13:46:46.437Z,2.98
2019-03-09T13:49:16.988Z,4.97
2019-03-09T13:51:47.692Z,2.40
2019-03-09T13:54:18.798Z,4.35
2019-03-09T13:56:49.669Z,4.03
2019-03-09T13:59:20.587Z,3.55
2019-03-09T14:01:52.173Z,4.87
2019-03-09T14:04:23.029Z,2.65
2019-03-09T14:06:54.389Z,3.45
2019-03-09T14:09:25.541Z,4.55
2019-03-09T14:11:57.589Z,1.95
2019-03-09T14:14:29.492Z,5.50
2019-03-09T14:17:00.070Z,3.10
2019-03-09T14:19:30.869Z,2.58
2019-03-09T14:22:01.434Z,2.60
2019-03-09T14:24:32.548Z,4.95
2019-03-09T14:27:02.975Z,2.22
2019-03-09T14:29:34.684Z,4.00
2019-03-09T14:32:05.388Z,4.95
2019-03-09T14:34:36.127Z,5.05
2019-03-09T14:37:07.427Z,2.47
2019-03-09T14:39:38.147Z,5.28
2019-03-09T14:42:08.772Z,4.65
2019-03-09T14:44:39.540Z,4.47
2019-03-09T14:47:10.869Z,3.15
2019-03-09T14:49:45.500Z,2.40
2019-03-09T14:52:16.547Z,5.67
2019-03-09T14:54:47.509Z,2.92
2019-03-09T14:57:19.076Z,2.30
2019-03-09T14:59:51.103Z,2.05
2019-03-09T15:02:22.076Z,4.42
2019-03-09T15:04:53.436Z,2.65
2019-03-09T15:07:23.948Z,4.10
2019-03-09T15:09:54.723Z,3.33
2019-03-09T15:12:25.917Z,4.37
2019-03-09T15:14:56.836Z,3.80
2019-03-09T15:17:28.475Z,6.08
2019-03-09T15:19:59.046Z,4.60
2019-03-09T15:22:29.948Z,5.22
2019-03-09T15:25:00.661Z,6.50
2019-03-09T15:27:31.349Z,7.08
2019-03-09T15:30:03.075Z,5.00
2019-03-09T15:32:33.909Z,3.95
2019-03-09T15:35:06.158Z,7.10
2019-03-09T15:37:36.668Z,3.98
2019-03-09T15:40:10.412Z,5.17
2019-03-09T15:42:41.597Z,4.80
2019-03-09T15:45:15.283Z,4.42
2019-03-09T15:47:47.380Z,5.62
2019-03-09T15:50:19.464Z,4.47
2019-03-09T15:52:50.268Z,4.40
2019-03-09T15:55:21.424Z,3.65
2019-03-09T15:57:52.828Z,7.15
2019-03-09T16:00:24.697Z,4.80
2019-03-09T16:02:55.412Z,3.95
2019-03-09T16:05:27.648Z,8.73
2019-03-09T16:07:59.061Z,6.70
2019-03-09T16:10:29.631Z,6.00
2019-03-09T16:13:00.732Z,7.17
2019-03-09T16:15:31.989Z,4.90
2019-03-09T16:18:02.712Z,5.97
2019-03-09T16:20:34.470Z,8.70
2019-03-09T16:23:05.509Z,10.78
2019-03-09T16:25:36.394Z,8.15
2019-03-09T16:28:07.052Z,3.90
2019-03-09T16:30:38.317Z,5.40
2019-03-09T16:33:09.908Z,7.53
2019-03-09T16:35:41.988Z,12.10
2019-03-09T16:38:13.120Z,10.58
2019-03-09T16:40:44.292Z,17.23
2019-03-09T16:43:15.124Z,10.50
2019-03-09T16:45:47.568Z,15.55
2019-03-09T16:48:18.718Z,11.45
2019-03-09T16:50:49.611Z,19.00
2019-03-09T16:53:20.238Z,8.68
2019-03-09T16:55:50.707Z,21.52
2019-03-09T16:58:21.276Z,18.87
2019-03-09T17:00:52.164Z,7.05
2019-03-09T17:03:24.307Z,4.65
2019-03-09T17:05:55.012Z,28.60
2019-03-09T17:08:25.906Z,13.48
2019-03-09T17:10:56.686Z,12.73
2019-03-09T17:13:27.995Z,4.22
2019-03-09T17:16:05.499Z,7.75
2019-03-09T17:26:31.588Z,11.30
2019-03-09T18:56:01.279Z,2.83
2019-03-09T18:58:38.032Z,4.80
2019-03-09T19:01:11.442Z,6.83
2019-03-09T19:03:44.105Z,12.47
2019-03-09T19:06:16.001Z,10.72
2019-03-09T19:08:48.080Z,8.50
2019-03-09T19:11:19.379Z,12.03
2019-03-09T19:13:51.004Z,27.23
2019-03-09T19:16:22.821Z,10.18
2019-03-09T19:18:54.818Z,11.27
2019-03-09T19:21:26.151Z,11.43
2019-03-09T19:23:56.997Z,10.23
2019-03-09T19:26:28.439Z,15.40
2019-03-09T19:29:00.355Z,10.23
2019-03-09T19:31:32.214Z,16.43
2019-03-09T19:34:03.893Z,14.97
2019-03-09T19:36:36.012Z,65.07
2019-03-09T19:39:07.758Z,57.90
2019-03-09T19:41:39.152Z,93.83
2019-03-09T19:44:09.952Z,46.40
2019-03-09T19:46:41.574Z,47.30
2019-03-09T19:49:14.152Z,40.53
2019-03-09T19:51:45.814Z,23.27
2019-03-09T19:54:16.690Z,17.77
2019-03-09T19:56:47.991Z,23.30
2019-03-09T19:59:19.473Z,40.00
2019-03-09T20:01:54.354Z,17.20
2019-03-09T20:04:26.824Z,16.60
2019-03-09T20:06:57.544Z,14.00
2019-03-09T20:09:29.141Z,13.70
2019-03-09T20:12:00.473Z,10.90
2019-03-09T20:14:32.426Z,21.63
2019-03-09T20:17:03.745Z,16.83
2019-03-09T20:19:35.008Z,28.37
2019-03-09T20:22:06.606Z,9.57
2019-03-09T20:24:38.243Z,18.73
2019-03-09T20:27:09.543Z,41.33
2019-03-09T20:29:41.273Z,15.73
2019-03-09T20:32:13.005Z,22.80
2019-03-09T20:34:45.063Z,28.97
2019-03-09T20:37:16.739Z,37.40
2019-03-09T20:39:48.458Z,9.97
2019-03-09T20:42:20.337Z,31.20
2019-03-09T20:44:51.937Z,30.37
2019-03-09T20:47:22.800Z,11.27
2019-03-09T20:49:54.564Z,11.53
2019-03-09T20:52:25.809Z,30.67
2019-03-09T20:55:12.081Z,9.07
2019-03-09T20:58:02.519Z,17.77
2019-03-09T21:00:42.732Z,13.80
2019-03-09T21:03:22.874Z,4.73
2019-03-09T21:05:54.689Z,8.27
2019-03-09T21:08:27.770Z,8.70
2019-03-09T21:11:03.955Z,9.87
2019-03-09T21:13:34.293Z,17.57
2019-03-09T21:16:06.649Z,16.17
2019-03-09T21:18:42.109Z,12.90
2019-03-09T21:21:25.130Z,9.57
2019-03-09T21:23:58.700Z,9.50
2019-03-09T21:26:31.590Z,6.73
2019-03-09T21:29:05.728Z,7.10
2019-03-09T21:31:37.819Z,12.23
2019-03-09T21:34:11.328Z,4.73
2019-03-09T21:36:43.481Z,18.37
2019-03-09T21:39:17.187Z,41.23
2019-03-09T21:41:51.536Z,36.63
2019-03-09T21:44:26.968Z,12.87
2019-03-09T21:47:13.249Z,10.47
2019-03-09T21:49:54.349Z,5.97
2019-03-09T21:52:27.569Z,3.13
2019-03-09T21:55:00.661Z,2.90
2019-03-09T21:57:35.050Z,6.17
2019-03-09T22:00:23.810Z,4.27
2019-03-09T22:03:01.044Z,3.10
2019-03-09T22:09:26.233Z,6.93
2019-03-09T22:12:22.876Z,3.47
2019-03-09T22:14:54.323Z,4.50
2019-03-09T22:17:25.158Z,7.10
2019-03-09T22:19:58.148Z,3.47
2019-03-09T22:22:29.822Z,4.30
2019-03-09T22:25:02.276Z,5.10
2019-03-09T22:27:33.326Z,4.33
2019-03-09T22:30:07.957Z,4.23
2019-03-09T22:32:39.658Z,4.53
2019-03-09T22:35:12.838Z,7.90
2019-03-09T22:37:45.471Z,6.03
2019-03-09T22:40:17.451Z,4.93
2019-03-09T22:42:48.380Z,5.37
2019-03-09T22:45:19.080Z,4.47
2019-03-09T22:47:50.609Z,15.20
2019-03-09T22:50:23.982Z,4.50
2019-03-09T22:52:55.758Z,3.53
2019-03-09T22:55:27.290Z,2.10
2019-03-09T22:57:58.377Z,4.03
2019-03-09T23:00:30.641Z,2.40
2019-03-09T23:03:03.220Z,2.23
2019-03-09T23:05:36.146Z,4.67
2019-03-09T23:08:08.961Z,2.80
2019-03-09T23:10:40.613Z,2.73
2019-03-09T23:13:11.996Z,3.70
2019-03-09T23:15:43.187Z,2.87
2019-03-09T23:18:14.362Z,3.93
2019-03-09T23:20:46.113Z,3.60
2019-03-09T23:23:17.376Z,4.50
2019-03-09T23:25:49.571Z,2.53
2019-03-09T23:28:20.435Z,3.10
2019-03-09T23:30:54.455Z,1.63
2019-03-09T23:33:25.034Z,2.60
2019-03-09T23:35:56.720Z,4.90
2019-03-09T23:38:27.840Z,3.93
2019-03-09T23:40:59.461Z,3.33
2019-03-09T23:43:31.187Z,9.70
2019-03-09T23:46:02.412Z,6.33
2019-03-09T23:48:34.015Z,10.53
2019-03-09T23:51:05.617Z,5.63
2019-03-09T23:53:36.597Z,5.27
2019-03-09T23:56:08.554Z,3.17
2019-03-09T23:58:40.357Z,4.87
